Time;durP1;ratioP1;P1;durP2;ratioP2;P2;SDS_P1;SDS_P2;PMS_P1;PMS_P2;Temp;Humidity;BMP_temperature;BMP_pressure;BME280_temperature;BME280_humidity;BME280_pressure;Samples;Min_cycle;Max_cycle;Signal;HPM_P1;HPM_P2
2022/06/29 00:00:27;;;;;;;20.33;14.50;;;20.50;99.90;;;;;;5093769;28;20220;-77
2022/06/29 00:02:57;;;;;;;21.57;15.30;;;20.40;99.90;;;;;;5076783;28;20262;-78
2022/06/29 00:05:29;;;;;;;23.00;15.10;;;20.40;99.90;;;;;;5074969;28;20573;-76
2022/06/29 00:07:57;;;;;;;20.63;14.80;;;20.30;99.90;;;;;;5074617;28;20244;-73
2022/06/29 00:10:28;;;;;;;21.60;15.43;;;20.30;99.90;;;;;;5059261;28;20200;-74
2022/06/29 00:12:55;;;;;;;20.17;14.93;;;20.30;99.90;;;;;;5093628;28;20217;-76
2022/06/29 00:15:23;;;;;;;21.27;15.43;;;20.40;99.90;;;;;;5094345;28;20524;-74
2022/06/29 00:17:50;;;;;;;24.87;15.17;;;20.40;99.90;;;;;;5092837;28;20239;-76
2022/06/29 00:20:18;;;;;;;20.33;14.83;;;20.40;99.90;;;;;;5074839;28;20193;-76
2022/06/29 00:22:46;;;;;;;23.87;16.03;;;20.40;99.90;;;;;;5074883;28;20212;-76
2022/06/29 00:25:13;;;;;;;22.13;16.07;;;20.40;99.90;;;;;;5077217;28;20220;-77
2022/06/29 00:27:41;;;;;;;20.63;16.10;;;20.30;99.90;;;;;;5074691;28;20696;-76
2022/06/29 00:30:09;;;;;;;22.30;15.47;;;20.40;99.90;;;;;;5071018;28;20202;-76
2022/06/29 00:32:37;;;;;;;22.73;16.03;;;20.50;99.90;;;;;;5069175;28;20554;-75
2022/06/29 00:35:05;;;;;;;22.07;15.83;;;20.50;99.90;;;;;;5074738;28;20243;-75
2022/06/29 00:37:32;;;;;;;22.57;15.13;;;20.60;99.90;;;;;;5074634;28;20605;-75
2022/06/29 00:40:00;;;;;;;21.20;16.03;;;20.60;99.90;;;;;;5074687;28;20247;-75
2022/06/29 00:42:27;;;;;;;24.17;16.00;;;20.60;99.90;;;;;;5074560;28;20217;-74
2022/06/29 00:44:54;;;;;;;20.60;14.63;;;20.70;99.90;;;;;;5092559;28;20250;-76
2022/06/29 00:47:22;;;;;;;23.57;15.00;;;20.70;99.90;;;;;;5074504;28;20305;-74
2022/06/29 00:49:49;;;;;;;20.67;14.70;;;20.70;99.90;;;;;;5075215;28;20193;-76
2022/06/29 00:52:24;;;;;;;22.70;15.33;;;20.70;99.90;;;;;;5096296;28;20220;-76
2022/06/29 00:55:02;;;;;;;21.00;16.27;;;20.70;99.90;;;;;;5078680;28;20604;-76
2022/06/29 00:57:30;;;;;;;20.43;15.13;;;20.60;99.90;;;;;;5078311;28;20197;-75
2022/06/29 00:59:59;;;;;;;20.60;15.23;;;20.60;99.90;;;;;;5078559;28;20217;-76
2022/06/29 01:02:29;;;;;;;20.30;15.43;;;20.70;99.90;;;;;;5096213;28;20186;-76
2022/06/29 01:04:56;;;;;;;20.17;15.57;;;20.70;99.90;;;;;;5096300;28;20198;-75
2022/06/29 01:07:26;;;;;;;21.93;15.87;;;20.60;99.90;;;;;;5074713;28;20699;-76
2022/06/29 01:09:53;;;;;;;21.27;15.33;;;20.40;99.90;;;;;;5074735;28;20225;-76
2022/06/29 01:12:20;;;;;;;21.57;15.87;;;20.40;99.90;;;;;;5073342;28;20302;-76
2022/06/29 01:14:48;;;;;;;23.67;16.90;;;20.40;99.90;;;;;;5063537;28;20285;-76
2022/06/29 01:17:15;;;;;;;20.60;15.43;;;20.40;99.90;;;;;;5075320;28;20240;-76
2022/06/29 01:19:43;;;;;;;24.07;16.57;;;20.40;99.90;;;;;;5056093;28;20191;-76
2022/06/29 01:22:17;;;;;;;20.30;15.73;;;20.50;99.90;;;;;;5038030;28;20226;-76
2022/06/29 01:24:46;;;;;;;20.67;15.40;;;20.50;99.90;;;;;;5054206;28;20230;-76
2022/06/29 01:27:15;;;;;;;19.87;15.30;;;20.40;99.90;;;;;;5055978;28;20278;-78
2022/06/29 01:29:42;;;;;;;22.70;16.13;;;20.50;99.90;;;;;;5055685;28;20582;-77
2022/06/29 01:32:10;;;;;;;21.87;16.07;;;20.40;99.90;;;;;;5054123;28;20253;-77
2022/06/29 01:34:37;;;;;;;22.17;15.33;;;20.40;99.90;;;;;;5054394;28;20637;-76
2022/06/29 01:37:05;;;;;;;21.53;15.80;;;20.30;99.90;;;;;;5066198;28;20210;-77
2022/06/29 01:39:33;;;;;;;20.57;15.33;;;20.30;99.90;;;;;;5055461;28;20558;-76
2022/06/29 01:42:00;;;;;;;21.47;15.97;;;20.30;99.90;;;;;;5054234;28;20197;-76
2022/06/29 01:44:28;;;;;;;22.50;16.50;;;20.30;99.90;;;;;;5054391;28;20294;-75
2022/06/29 01:46:55;;;;;;;20.80;15.43;;;20.30;99.90;;;;;;5069484;28;20198;-76
2022/06/29 01:49:23;;;;;;;19.93;15.53;;;20.20;99.90;;;;;;5073951;28;20209;-76
2022/06/29 01:51:50;;;;;;;23.87;16.33;;;20.20;99.90;;;;;;5075330;28;20210;-76
2022/06/29 01:54:17;;;;;;;20.73;16.00;;;20.20;99.90;;;;;;5063758;28;20206;-76
2022/06/29 01:56:44;;;;;;;22.33;16.13;;;20.10;99.90;;;;;;5053875;28;20234;-76
2022/06/29 01:59:11;;;;;;;22.83;16.03;;;20.10;99.90;;;;;;5055418;28;20186;-76
2022/06/29 02:01:39;;;;;;;20.57;15.40;;;20.20;99.90;;;;;;5053099;28;20222;-76
2022/06/29 02:04:06;;;;;;;21.23;15.90;;;20.20;99.90;;;;;;5061369;28;20292;-77
2022/06/29 02:06:33;;;;;;;22.80;15.97;;;20.20;99.90;;;;;;5073649;28;20225;-76
2022/06/29 02:09:00;;;;;;;24.63;16.23;;;20.20;99.90;;;;;;5073286;28;20341;-76
2022/06/29 02:11:27;;;;;;;27.00;16.23;;;20.30;99.90;;;;;;5073868;28;20204;-75
2022/06/29 02:13:54;;;;;;;23.10;17.30;;;20.30;99.90;;;;;;5073517;28;20263;-75
2022/06/29 02:16:21;;;;;;;22.53;17.17;;;20.30;99.90;;;;;;5074709;28;20212;-75
2022/06/29 02:18:49;;;;;;;22.50;16.83;;;20.30;99.90;;;;;;5073716;28;20198;-76
2022/06/29 02:21:16;;;;;;;25.77;17.67;;;20.30;99.90;;;;;;5074722;28;20194;-75
2022/06/29 02:23:42;;;;;;;26.70;18.50;;;20.40;99.90;;;;;;5073388;28;20266;-76
2022/06/29 02:26:09;;;;;;;23.60;17.90;;;20.40;99.90;;;;;;5073526;28;20590;-75
2022/06/29 02:28:36;;;;;;;27.47;18.80;;;20.40;99.90;;;;;;5073273;28;20684;-76
2022/06/29 02:36:34;;;;;;;23.93;18.43;;;20.50;99.90;;;;;;5053160;28;20637;-76
2022/06/29 02:39:01;;;;;;;26.40;18.70;;;20.50;99.90;;;;;;5052940;28;20739;-76
2022/06/29 02:41:29;;;;;;;25.33;19.30;;;20.60;99.90;;;;;;5053501;28;20183;-76
2022/06/29 02:43:56;;;;;;;23.87;18.87;;;20.60;99.90;;;;;;5054294;28;20190;-76
2022/06/29 02:46:23;;;;;;;24.20;18.73;;;20.70;99.90;;;;;;5052545;28;20285;-78
2022/06/29 02:48:50;;;;;;;23.70;18.50;;;20.60;99.90;;;;;;5054555;28;20290;-77
2022/06/29 02:51:17;;;;;;;21.13;17.40;;;20.60;99.90;;;;;;5054003;28;20240;-76
2022/06/29 02:53:44;;;;;;;22.97;16.43;;;20.60;99.90;;;;;;5053607;28;20257;-76
2022/06/29 02:56:12;;;;;;;21.60;16.03;;;20.60;99.90;;;;;;5052774;28;20209;-78
2022/06/29 02:58:39;;;;;;;18.47;14.03;;;20.60;99.90;;;;;;5052987;28;20206;-79
2022/06/29 03:01:06;;;;;;;20.37;13.83;;;20.60;99.90;;;;;;5052797;28;20221;-74
2022/06/29 03:03:33;;;;;;;17.50;13.97;;;20.70;99.90;;;;;;5073683;28;20197;-76
2022/06/29 03:06:00;;;;;;;17.43;13.40;;;20.70;99.90;;;;;;5072457;28;20297;-76
2022/06/29 03:08:27;;;;;;;16.33;12.70;;;20.70;99.90;;;;;;5072156;28;20675;-77
2022/06/29 03:10:54;;;;;;;17.73;12.20;;;20.70;99.90;;;;;;5072337;28;20293;-77
2022/06/29 03:13:21;;;;;;;16.87;11.70;;;20.50;99.90;;;;;;5071419;28;20307;-77
2022/06/29 03:15:48;;;;;;;16.73;12.13;;;20.50;99.90;;;;;;5072370;28;20186;-76
2022/06/29 03:18:15;;;;;;;15.77;12.47;;;20.50;99.90;;;;;;5073473;28;20568;-76
2022/06/29 03:20:42;;;;;;;14.93;12.10;;;20.60;99.90;;;;;;5072813;28;20186;-77
2022/06/29 03:23:09;;;;;;;15.70;11.47;;;20.60;99.90;;;;;;5071961;28;20572;-76
2022/06/29 03:25:36;;;;;;;15.23;11.53;;;20.60;99.90;;;;;;5072122;28;20201;-76
2022/06/29 03:28:03;;;;;;;17.43;11.23;;;20.60;99.90;;;;;;5057981;28;20329;-75
2022/06/29 03:30:30;;;;;;;16.30;12.17;;;20.70;99.90;;;;;;5052208;28;20201;-76
2022/06/29 03:32:57;;;;;;;13.90;11.50;;;20.70;99.90;;;;;;5051815;28;20207;-75
2022/06/29 03:35:24;;;;;;;15.53;11.80;;;20.70;99.90;;;;;;5059534;28;20305;-76
2022/06/29 03:37:51;;;;;;;16.57;12.53;;;20.80;99.90;;;;;;5072188;28;20198;-76
2022/06/29 03:40:18;;;;;;;17.30;12.90;;;20.60;99.90;;;;;;5071932;28;20293;-75
2022/06/29 03:42:45;;;;;;;16.03;12.33;;;20.40;99.90;;;;;;5072135;28;20237;-76
2022/06/29 03:45:12;;;;;;;18.13;13.60;;;20.40;99.90;;;;;;5071975;28;20607;-76
2022/06/29 03:47:39;;;;;;;17.87;13.07;;;20.40;99.90;;;;;;5071474;28;20280;-76
2022/06/29 03:50:08;;;;;;;18.10;12.63;;;20.30;99.90;;;;;;5072161;28;20597;-76
2022/06/29 03:52:35;;;;;;;18.50;12.70;;;20.40;99.90;;;;;;5071746;28;20229;-76
2022/06/29 03:55:02;;;;;;;15.97;12.13;;;20.50;99.90;;;;;;5073395;28;20190;-76
2022/06/29 03:57:30;;;;;;;16.73;12.37;;;20.50;99.90;;;;;;5071647;28;20243;-76
2022/06/29 03:59:57;;;;;;;17.70;13.07;;;20.60;99.90;;;;;;5055503;28;20190;-77
2022/06/29 04:02:25;;;;;;;18.07;13.50;;;20.60;99.90;;;;;;5071362;28;20194;-76
2022/06/29 04:04:53;;;;;;;19.87;12.97;;;20.60;99.90;;;;;;5071546;28;20293;-77
2022/06/29 04:07:20;;;;;;;17.37;12.60;;;20.70;99.90;;;;;;5074359;28;20316;-77
2022/06/29 04:09:47;;;;;;;17.33;12.47;;;20.80;99.90;;;;;;5074940;28;20193;-76
2022/06/29 04:12:14;;;;;;;18.97;13.30;;;20.80;99.90;;;;;;5075116;28;20654;-76
2022/06/29 04:14:41;;;;;;;19.33;13.77;;;20.80;99.90;;;;;;5075103;28;20196;-76
2022/06/29 04:17:09;;;;;;;18.63;13.70;;;20.70;99.90;;;;;;5085028;28;20591;-76
2022/06/29 04:19:36;;;;;;;17.47;13.60;;;20.80;99.90;;;;;;5055056;28;20194;-77
2022/06/29 04:22:03;;;;;;;20.37;14.30;;;20.80;99.90;;;;;;5055014;28;20186;-77
2022/06/29 04:24:30;;;;;;;18.93;13.90;;;20.70;99.90;;;;;;5056547;28;20190;-76
2022/06/29 04:27:03;;;;;;;24.07;15.07;;;20.70;99.90;;;;;;5077273;28;20236;-76
2022/06/29 04:29:30;;;;;;;20.00;14.60;;;20.50;99.90;;;;;;5058946;28;20205;-76
2022/06/29 04:31:57;;;;;;;20.97;14.80;;;20.50;99.90;;;;;;5058411;28;20234;-77
2022/06/29 04:34:24;;;;;;;22.23;15.30;;;20.50;99.90;;;;;;5058805;28;20218;-76
2022/06/29 04:36:52;;;;;;;18.67;14.33;;;20.60;99.90;;;;;;5059077;28;20229;-77
2022/06/29 04:39:19;;;;;;;20.00;14.23;;;20.70;99.90;;;;;;5076523;28;20206;-76
2022/06/29 04:41:47;;;;;;;21.73;14.70;;;20.70;99.90;;;;;;5042066;28;20194;-77
2022/06/29 04:44:14;;;;;;;19.70;14.10;;;20.70;99.90;;;;;;5058463;28;20194;-77
2022/06/29 04:46:41;;;;;;;18.70;14.27;;;20.60;99.90;;;;;;5059039;28;20296;-76
2022/06/29 04:49:09;;;;;;;22.03;14.70;;;20.80;99.90;;;;;;5058705;28;20259;-76
2022/06/29 04:51:36;;;;;;;20.17;13.40;;;20.90;99.90;;;;;;5076466;28;20190;-78
2022/06/29 04:54:03;;;;;;;20.97;14.63;;;21.00;99.90;;;;;;5058633;28;20680;-78
2022/06/29 04:56:33;;;;;;;20.27;13.57;;;21.10;99.90;;;;;;5058399;28;20292;-80
2022/06/29 04:59:01;;;;;;;21.40;14.50;;;21.20;99.90;;;;;;5059191;28;20202;-79
2022/06/29 05:01:30;;;;;;;20.60;15.10;;;21.10;99.90;;;;;;5058746;28;20201;-79
2022/06/29 05:04:01;;;;;;;20.90;14.27;;;21.10;99.90;;;;;;5059712;28;20191;-79
2022/06/29 05:06:29;;;;;;;19.77;14.27;;;21.20;99.90;;;;;;5059783;28;20197;-79
2022/06/29 05:08:56;;;;;;;18.43;14.00;;;21.20;99.90;;;;;;5079104;28;20627;-79
2022/06/29 05:11:25;;;;;;;19.37;14.50;;;21.40;99.90;;;;;;5059439;28;20202;-78
2022/06/29 05:13:53;;;;;;;18.90;13.87;;;21.50;99.90;;;;;;5077493;28;20567;-80
2022/06/29 05:16:20;;;;;;;18.03;13.73;;;21.70;99.90;;;;;;5076906;28;20247;-79
2022/06/29 05:18:48;;;;;;;19.07;14.03;;;21.80;99.90;;;;;;5060611;28;20662;-80
2022/06/29 05:21:15;;;;;;;17.43;13.40;;;21.80;99.90;;;;;;5058470;28;20198;-80
2022/06/29 05:23:44;;;;;;;18.40;13.30;;;21.80;99.90;;;;;;5076879;28;20631;-79
2022/06/29 05:26:11;;;;;;;18.37;13.30;;;22.00;99.90;;;;;;5058603;28;20183;-79
2022/06/29 05:28:39;;;;;;;22.20;15.57;;;22.10;99.90;;;;;;5058326;28;20198;-80
2022/06/29 05:31:06;;;;;;;22.57;14.57;;;22.20;99.90;;;;;;5058406;28;20205;-78
2022/06/29 05:33:39;;;;;;;25.80;15.00;;;22.10;99.90;;;;;;5058243;28;20214;-79
2022/06/29 05:36:09;;;;;;;21.47;14.70;;;22.00;99.90;;;;;;5076238;28;20176;-79
2022/06/29 05:38:37;;;;;;;18.27;14.10;;;22.20;99.90;;;;;;5059348;28;20212;-78
2022/06/29 05:41:04;;;;;;;21.73;15.50;;;22.30;99.90;;;;;;5076018;28;20604;-78
2022/06/29 05:43:32;;;;;;;22.60;16.17;;;22.30;99.90;;;;;;5060576;28;20194;-78
2022/06/29 05:45:59;;;;;;;22.40;17.27;;;22.30;99.90;;;;;;5058359;28;20217;-78
2022/06/29 05:48:26;;;;;;;22.23;16.53;;;22.20;99.90;;;;;;5059591;28;20205;-76
2022/06/29 05:50:53;;;;;;;24.30;17.90;;;22.10;99.90;;;;;;5057388;28;20198;-77
2022/06/29 05:53:20;;;;;;;24.83;17.03;;;22.10;99.90;;;;;;5058986;28;20257;-78
2022/06/29 05:55:47;;;;;;;25.20;17.47;;;22.10;99.90;;;;;;5057759;28;20198;-78
2022/06/29 05:58:18;;;;;;;24.47;18.37;;;22.10;99.90;;;;;;5060966;28;20260;-79
2022/06/29 06:00:47;;;;;;;26.77;18.10;;;22.10;99.90;;;;;;5058311;28;20217;-77
2022/06/29 06:03:15;;;;;;;24.83;18.13;;;22.00;99.90;;;;;;5075308;28;20186;-77
2022/06/29 06:05:43;;;;;;;23.67;16.97;;;22.10;99.90;;;;;;5058568;28;20207;-77
2022/06/29 06:08:13;;;;;;;22.23;16.73;;;22.10;99.90;;;;;;5075541;28;20305;-78
2022/06/29 06:10:40;;;;;;;26.07;17.73;;;22.10;99.90;;;;;;5057723;28;20244;-78
2022/06/29 06:13:07;;;;;;;21.00;15.43;;;22.00;99.90;;;;;;5057668;28;20267;-79
2022/06/29 06:15:35;;;;;;;24.53;15.80;;;22.10;99.90;;;;;;5058958;28;20225;-78
2022/06/29 06:18:02;;;;;;;20.00;15.87;;;22.20;99.90;;;;;;5058893;28;20293;-78
2022/06/29 06:20:30;;;;;;;23.80;16.80;;;22.40;99.90;;;;;;5075627;28;20183;-78
2022/06/29 06:22:57;;;;;;;21.67;15.97;;;22.40;99.90;;;;;;5059036;28;20260;-78
2022/06/29 06:25:30;;;;;;;20.27;15.40;;;22.50;99.90;;;;;;5058569;28;20204;-77
2022/06/29 06:27:58;;;;;;;22.47;16.20;;;22.60;99.90;;;;;;5076352;28;20204;-78
2022/06/29 06:30:25;;;;;;;23.67;16.13;;;22.70;99.90;;;;;;5075152;28;20186;-78
2022/06/29 06:32:54;;;;;;;23.20;16.33;;;22.70;99.90;;;;;;5074646;28;20217;-78
2022/06/29 06:35:21;;;;;;;21.27;15.45;;;22.80;99.90;;;;;;5076078;28;20263;-78
2022/06/29 06:37:48;;;;;;;19.47;15.30;;;22.90;99.90;;;;;;5039893;28;20290;-75
2022/06/29 06:43:02;;;;;;;21.00;16.27;;;23.00;99.90;;;;;;5076063;28;20190;-75
2022/06/29 06:45:29;;;;;;;18.47;15.43;;;23.00;99.90;;;;;;5075202;28;20258;-76
2022/06/29 06:47:56;;;;;;;20.23;15.63;;;23.00;99.90;;;;;;5074853;28;20201;-76
2022/06/29 06:50:23;;;;;;;23.08;16.23;;;23.20;99.90;;;;;;5076604;28;20201;-75
2022/06/29 06:52:50;;;;;;;22.90;16.83;;;23.30;99.90;;;;;;5076021;28;20201;-75
2022/06/29 06:55:17;;;;;;;21.48;16.35;;;23.50;99.90;;;;;;5076178;28;20232;-79
2022/06/29 06:57:44;;;;;;;22.35;16.55;;;23.70;99.90;;;;;;5094292;28;20190;-75
2022/06/29 07:00:12;;;;;;;21.10;15.70;;;23.60;99.90;;;;;;5094297;28;20197;-77
2022/06/29 07:02:42;;;;;;;24.97;17.57;;;23.70;99.90;;;;;;5066287;28;20190;-77
2022/06/29 07:05:09;;;;;;;21.70;16.30;;;23.70;99.90;;;;;;5066906;28;20197;-76
2022/06/29 07:07:36;;;;;;;22.25;16.20;;;23.70;99.90;;;;;;5056600;28;20290;-79
2022/06/29 07:10:04;;;;;;;24.00;15.73;;;23.70;99.90;;;;;;5057657;28;20190;-75
2022/06/29 07:12:31;;;;;;;21.38;15.70;;;23.90;99.90;;;;;;5056022;28;20182;-76
2022/06/29 07:14:58;;;;;;;21.35;16.70;;;23.80;99.90;;;;;;5057374;28;20222;-74
2022/06/29 07:17:25;;;;;;;23.63;16.55;;;23.80;99.90;;;;;;5055756;28;20305;-73
2022/06/29 07:19:52;;;;;;;21.15;16.02;;;23.70;99.90;;;;;;5055762;28;20229;-73
2022/06/29 07:22:22;;;;;;;22.80;16.60;;;23.80;99.90;;;;;;5040634;28;20198;-74
2022/06/29 07:24:49;;;;;;;21.85;16.00;;;23.70;99.90;;;;;;5056089;28;20301;-73
2022/06/29 07:27:16;;;;;;;20.40;15.82;;;23.70;99.90;;;;;;5057402;28;20198;-74
2022/06/29 07:29:53;;;;;;;22.20;16.40;;;23.70;99.90;;;;;;5056835;28;20643;-75
2022/06/29 07:32:21;;;;;;;25.25;16.80;;;23.70;99.90;;;;;;5074409;28;20551;-75
2022/06/29 07:34:48;;;;;;;22.80;16.17;;;23.70;99.90;;;;;;5055939;28;20222;-75
2022/06/29 07:37:15;;;;;;;23.27;17.33;;;23.70;99.90;;;;;;5074043;28;20194;-74
2022/06/29 07:39:42;;;;;;;21.35;16.52;;;23.60;99.90;;;;;;5055399;28;20292;-74
2022/06/29 07:42:32;;;;;;;26.47;16.47;;;23.70;99.90;;;;;;5055060;28;20629;-75
2022/06/29 07:44:59;;;;;;;19.73;15.43;;;23.80;99.90;;;;;;5055089;28;20292;-75
2022/06/29 07:47:26;;;;;;;23.83;15.60;;;23.90;99.90;;;;;;5055268;28;20653;-77
2022/06/29 07:49:54;;;;;;;22.30;15.40;;;24.00;99.90;;;;;;5055397;28;20278;-78
2022/06/29 07:52:24;;;;;;;19.58;15.20;;;24.10;99.90;;;;;;5054721;28;20570;-77
2022/06/29 07:54:54;;;;;;;23.25;17.40;;;24.20;99.90;;;;;;5054977;28;20308;-75
2022/06/29 07:57:21;;;;;;;24.15;17.13;;;24.20;99.90;;;;;;5073297;28;20201;-75
2022/06/29 07:59:57;;;;;;;21.08;17.05;;;24.10;99.90;;;;;;5072568;28;20675;-78
2022/06/29 08:02:25;;;;;;;24.13;17.25;;;24.10;99.90;;;;;;5055331;28;20198;-77
2022/06/29 08:04:52;;;;;;;20.42;16.10;;;24.10;99.90;;;;;;5055089;28;20202;-72
2022/06/29 08:07:30;;;;;;;20.05;15.82;;;24.10;99.90;;;;;;5054663;28;20254;-70
2022/06/29 08:09:59;;;;;;;22.30;15.97;;;24.30;99.90;;;;;;5055359;28;20274;-70
2022/06/29 08:12:26;;;;;;;20.73;16.70;;;24.30;99.90;;;;;;5072633;28;20186;-69
2022/06/29 08:14:53;;;;;;;22.02;16.00;;;24.40;99.90;;;;;;5055006;28;20225;-69
2022/06/29 08:17:19;;;;;;;24.00;17.85;;;24.40;99.90;;;;;;5054791;28;20715;-71
2022/06/29 08:19:47;;;;;;;24.77;17.42;;;24.30;99.90;;;;;;5055070;28;20249;-70
2022/06/29 08:22:13;;;;;;;23.67;18.42;;;24.30;99.90;;;;;;5072666;28;20201;-70
2022/06/29 08:24:40;;;;;;;22.27;16.48;;;24.30;99.90;;;;;;5072801;28;20194;-70
2022/06/29 08:27:07;;;;;;;23.15;14.77;;;24.20;99.90;;;;;;5072712;28;20195;-70
2022/06/29 08:29:54;;;;;;;20.35;16.23;;;24.30;99.90;;;;;;5054606;28;20198;-69
2022/06/29 08:32:21;;;;;;;20.35;15.10;;;24.20;99.90;;;;;;5054568;28;20285;-70
2022/06/29 08:34:48;;;;;;;22.30;16.23;;;24.20;99.90;;;;;;5072653;28;20666;-69
2022/06/29 08:37:15;;;;;;;24.83;16.88;;;24.50;99.90;;;;;;5072796;28;20244;-69
2022/06/29 08:39:43;;;;;;;22.20;17.13;;;24.60;99.90;;;;;;5054606;28;20212;-71
2022/06/29 08:42:11;;;;;;;22.55;17.27;;;24.80;99.90;;;;;;5072630;28;20194;-71
2022/06/29 08:44:39;;;;;;;26.95;17.50;;;24.80;99.90;;;;;;5055044;28;20561;-71
2022/06/29 08:47:10;;;;;;;24.63;18.75;;;25.00;99.90;;;;;;5072555;28;20191;-71
2022/06/29 08:49:37;;;;;;;18.98;15.77;;;25.00;99.90;;;;;;5072666;28;20340;-70
2022/06/29 08:52:06;;;;;;;19.25;14.95;;;25.00;99.90;;;;;;5054353;28;20699;-70
2022/06/29 08:54:39;;;;;;;20.58;15.25;;;25.20;99.90;;;;;;5072379;28;20608;-70
2022/06/29 08:57:07;;;;;;;19.55;16.33;;;25.30;99.90;;;;;;5054602;28;20248;-69
2022/06/29 08:59:34;;;;;;;26.55;15.90;;;25.40;99.90;;;;;;5054461;28;20240;-68
2022/06/29 09:02:22;;;;;;;22.77;16.30;;;25.40;99.90;;;;;;5054255;28;20281;-70
2022/06/29 09:04:50;;;;;;;20.17;15.77;;;25.30;99.90;;;;;;5054277;28;20248;-69
2022/06/29 09:07:17;;;;;;;20.42;15.85;;;25.20;99.90;;;;;;5054044;28;20272;-70
2022/06/29 09:10:00;;;;;;;23.55;16.13;;;25.00;99.90;;;;;;5054396;28;20194;-69
2022/06/29 09:12:28;;;;;;;22.40;16.98;;;25.10;99.90;;;;;;5057290;28;20216;-69
2022/06/29 09:14:56;;;;;;;30.13;16.70;;;25.20;99.90;;;;;;5075933;28;20323;-69
2022/06/29 09:17:24;;;;;;;20.83;14.43;;;25.20;99.90;;;;;;5057882;28;20186;-69
2022/06/29 09:19:56;;;;;;;20.13;16.13;;;25.10;99.90;;;;;;5075910;28;20221;-71
2022/06/29 09:22:53;;;;;;;24.13;16.50;;;25.00;99.90;;;;;;5057653;28;20190;-70
2022/06/29 09:25:24;;;;;;;24.73;18.15;;;25.00;99.90;;;;;;5057826;28;20240;-70
2022/06/29 09:27:55;;;;;;;21.25;17.02;;;25.00;99.90;;;;;;5075738;28;20697;-71
2022/06/29 09:30:35;;;;;;;21.10;15.70;;;25.10;99.90;;;;;;5058275;28;20186;-71
2022/06/29 09:33:06;;;;;;;23.55;16.42;;;25.10;99.90;;;;;;5075374;28;20666;-73
2022/06/29 09:35:34;;;;;;;20.92;14.73;;;25.20;99.90;;;;;;5057910;28;20217;-71
2022/06/29 09:38:17;;;;;;;19.92;16.30;;;25.30;99.90;;;;;;5057466;28;20194;-71
2022/06/29 09:41:11;;;;;;;22.08;15.23;;;25.40;99.90;;;;;;5075554;28;20480;-72
2022/06/29 09:43:39;;;;;;;20.98;16.13;;;25.50;99.90;;;;;;5057268;28;20649;-72
2022/06/29 09:46:07;;;;;;;23.77;16.27;;;25.50;99.90;;;;;;5057486;28;20194;-72
2022/06/29 09:48:36;;;;;;;20.92;15.18;;;25.50;99.90;;;;;;5057675;28;20225;-72
2022/06/29 09:54:02;;;;;;;20.58;16.40;;;25.50;99.90;;;;;;5075494;28;20202;-72
2022/06/29 09:56:31;;;;;;;19.75;14.70;;;25.40;99.90;;;;;;5073915;28;20196;-71
2022/06/29 09:58:59;;;;;;;19.75;16.15;;;25.60;99.90;;;;;;5057252;28;20259;-71
2022/06/29 10:04:14;;;;;;;20.55;15.10;;;25.50;99.90;;;;;;5073594;28;20202;-71
2022/06/29 10:06:43;;;;;;;21.23;15.90;;;25.50;99.90;;;;;;5074920;28;20218;-71
2022/06/29 10:09:11;;;;;;;22.02;14.65;;;25.40;99.90;;;;;;5057204;28;20264;-71
2022/06/29 10:15:26;;;;;;;30.00;18.45;;;25.10;99.90;;;;;;5073618;28;20260;-72
2022/06/29 10:18:09;;;;;;;22.73;15.90;;;25.00;99.90;;;;;;5056966;28;20610;-70
2022/06/29 10:20:44;;;;;;;19.02;15.43;;;25.00;99.90;;;;;;5074835;28;20187;-70
2022/06/29 10:23:58;;;;;;;23.88;16.65;;;25.00;99.90;;;;;;5073091;28;20198;-72
2022/06/29 10:26:37;;;;;;;19.70;15.65;;;25.00;99.90;;;;;;5037148;28;20604;-72
2022/06/29 10:29:10;;;;;;;22.48;15.52;;;25.00;99.90;;;;;;5074569;28;20200;-73
2022/06/29 10:31:53;;;;;;;19.85;14.35;;;25.00;99.90;;;;;;5073347;28;20209;-71
2022/06/29 10:35:10;;;;;;;21.33;16.00;;;25.30;99.90;;;;;;5065341;28;20638;-77
2022/06/29 10:37:32;;;;;;;22.25;15.30;;;25.30;99.90;;;;;;5073990;28;20201;-80
2022/06/29 10:40:04;;;;;;;20.98;15.57;;;25.40;99.90;;;;;;5066803;28;20611;-80
2022/06/29 10:45:24;;;;;;;22.88;16.67;;;25.80;99.90;;;;;;5080253;28;20247;-78
2022/06/29 10:47:55;;;;;;;23.15;15.93;;;26.10;99.90;;;;;;5095257;28;20197;-78
2022/06/29 10:50:24;;;;;;;25.85;15.77;;;26.50;99.90;;;;;;5062022;28;20725;-79
2022/06/29 10:53:03;;;;;;;18.98;14.45;;;26.90;99.90;;;;;;5078132;28;20511;-78
2022/06/29 10:55:36;;;;;;;20.13;14.27;;;27.30;99.90;;;;;;5114415;28;20247;-79
2022/06/29 10:58:04;;;;;;;22.05;15.85;;;27.70;99.90;;;;;;5100261;28;20254;-80
2022/06/29 11:00:33;;;;;;;19.05;14.90;;;27.90;99.90;;;;;;5100218;28;20201;-81
2022/06/29 11:03:15;;;;;;;17.95;15.15;;;28.00;99.90;;;;;;5121032;28;20244;-80
2022/06/29 11:17:02;;;;;;;21.45;14.50;;;29.60;99.90;;;;;;5077441;28;20197;-80
2022/06/29 11:19:34;;;;;;;18.52;14.35;;;29.80;99.90;;;;;;5058750;28;20256;-78
2022/06/29 11:22:15;;;;;;;17.55;14.18;;;30.10;99.90;;;;;;5057862;28;20662;-77
2022/06/29 11:25:09;;;;;;;18.45;14.40;;;30.10;99.90;;;;;;5074743;28;20225;-78
2022/06/29 11:27:40;;;;;;;18.70;14.20;;;30.10;99.90;;;;;;5052550;28;20607;-78
2022/06/29 11:30:11;;;;;;;18.30;14.75;;;30.40;99.90;;;;;;5056441;28;20202;-77
2022/06/29 11:32:49;;;;;;;17.65;12.93;;;31.00;99.90;;;;;;5077150;28;20182;-76
2022/06/29 11:35:21;;;;;;;17.10;14.05;;;31.40;99.90;;;;;;5056922;28;20271;-78
2022/06/29 11:37:52;;;;;;;18.13;13.43;;;31.40;99.90;;;;;;5074680;28;20208;-76
2022/06/29 11:40:35;;;;;;;15.70;13.25;;;31.60;99.90;;;;;;5056460;28;20259;-79
2022/06/29 11:43:14;;;;;;;16.92;13.25;;;31.60;99.90;;;;;;5072777;28;20221;-75
2022/06/29 11:45:51;;;;;;;14.30;12.00;;;31.80;99.90;;;;;;5079993;28;20232;-76
2022/06/29 11:48:24;;;;;;;14.32;12.18;;;32.30;99.90;;;;;;5066782;28;20642;-76
2022/06/29 11:50:51;;;;;;;16.92;12.35;;;32.40;99.90;;;;;;5055360;28;20647;-76
2022/06/29 11:53:44;;;;;;;13.63;11.75;;;32.40;99.90;;;;;;5038298;28;20723;-78
2022/06/29 11:56:13;;;;;;;13.48;11.32;;;32.20;99.90;;;;;;5038127;28;20747;-76
2022/06/29 11:58:49;;;;;;;14.98;11.35;;;32.30;99.90;;;;;;5055347;28;20277;-79
2022/06/29 12:01:19;;;;;;;13.82;12.13;;;32.20;99.90;;;;;;5055165;28;20588;-77
2022/06/29 12:03:51;;;;;;;14.65;11.52;;;32.40;99.90;;;;;;5084901;28;20239;-77
2022/06/29 12:06:21;;;;;;;13.77;12.32;;;32.60;99.90;;;;;;5076183;28;20189;-77
2022/06/29 12:08:50;;;;;;;16.13;13.57;;;32.20;99.90;;;;;;5073794;28;20772;-77
2022/06/29 12:11:18;;;;;;;18.33;12.40;;;32.00;99.90;;;;;;5073537;28;20186;-76
2022/06/29 12:13:49;;;;;;;15.10;12.13;;;32.20;99.90;;;;;;5073120;28;20229;-76
2022/06/29 12:16:17;;;;;;;14.05;11.93;;;32.50;99.90;;;;;;5073426;28;20741;-78
2022/06/29 12:18:45;;;;;;;12.65;11.20;;;33.00;99.90;;;;;;5055072;28;20202;-79
2022/06/29 12:21:12;;;;;;;15.25;13.43;;;32.90;99.90;;;;;;5054881;28;20256;-79
2022/06/29 12:23:39;;;;;;;15.75;13.40;;;32.40;99.90;;;;;;5055191;28;20297;-77
2022/06/29 12:26:08;;;;;;;13.55;11.48;;;32.50;99.90;;;;;;5054919;28;20252;-77
2022/06/29 12:28:38;;;;;;;14.05;11.65;;;32.80;99.90;;;;;;5072747;28;20259;-75
2022/06/29 12:31:06;;;;;;;13.10;11.40;;;33.40;99.90;;;;;;5072709;28;20190;-76
2022/06/29 12:33:34;;;;;;;11.38;10.20;;;33.70;99.90;;;;;;5054206;28;20201;-80
2022/06/29 12:36:04;;;;;;;13.40;11.45;;;33.80;99.90;;;;;;5059035;28;20197;-81
2022/06/29 12:38:31;;;;;;;12.30;10.48;;;34.00;99.90;;;;;;5091993;28;20254;-81
2022/06/29 12:40:59;;;;;;;13.40;10.93;;;34.40;99.90;;;;;;5057845;28;20246;-80
2022/06/29 12:43:26;;;;;;;11.23;10.05;;;34.00;99.90;;;;;;5074795;28;20520;-78
2022/06/29 12:45:53;;;;;;;13.30;11.73;;;34.10;99.90;;;;;;5076265;28;20298;-79
2022/06/29 12:48:20;;;;;;;14.27;10.50;;;34.40;99.90;;;;;;5078413;28;20204;-79
2022/06/29 12:50:48;;;;;;;12.45;11.15;;;34.80;99.90;;;;;;5062101;28;20284;-79
2022/06/29 12:53:16;;;;;;;14.07;10.10;;;34.70;98.80;;;;;;5079205;28;20207;-79
2022/06/29 12:55:43;;;;;;;11.50;9.60;;;34.80;98.80;;;;;;5091396;28;20713;-78
2022/06/29 12:58:10;;;;;;;14.35;10.68;;;35.20;98.40;;;;;;5070470;28;20293;-78
2022/06/29 13:00:37;;;;;;;14.07;9.73;;;35.30;97.00;;;;;;5065070;28;20643;-77
2022/06/29 13:03:04;;;;;;;12.95;10.93;;;35.40;96.80;;;;;;5076609;28;20243;-78
2022/06/29 13:05:32;;;;;;;11.98;10.68;;;35.50;95.50;;;;;;5067680;28;20194;-77
2022/06/29 13:08:00;;;;;;;14.98;11.20;;;35.80;95.10;;;;;;5054202;28;20273;-78
2022/06/29 13:10:28;;;;;;;12.25;10.95;;;35.70;94.80;;;;;;5071152;28;20197;-77